createdAt,value
2023-09-08T00:01:45.387Z,15.21
2023-09-08T00:04:13.060Z,15.03
2023-09-08T00:06:40.708Z,15.38
2023-09-08T00:09:08.823Z,15.01
2023-09-08T00:11:36.405Z,15.17
2023-09-08T00:14:04.773Z,15.03
2023-09-08T00:16:32.454Z,15.08
2023-09-08T00:18:59.932Z,15.28
2023-09-08T00:21:27.995Z,14.85
2023-09-08T00:23:55.375Z,15.07
2023-09-08T00:26:22.945Z,15.03
2023-09-08T00:28:51.164Z,15.13
2023-09-08T00:31:18.616Z,15.04
2023-09-08T00:33:45.916Z,15.09
2023-09-08T00:36:13.627Z,15.15
2023-09-08T00:38:40.787Z,15.31
2023-09-08T00:41:09.072Z,15.16
2023-09-08T00:43:36.346Z,14.97
2023-09-08T00:46:05.068Z,15.00
2023-09-08T00:48:33.020Z,14.91
2023-09-08T00:51:00.824Z,15.14
2023-09-08T00:53:28.299Z,15.04
2023-09-08T00:55:57.682Z,15.15
2023-09-08T00:58:24.915Z,14.77
2023-09-08T01:00:52.532Z,14.87
2023-09-08T01:03:20.046Z,14.98
2023-09-08T01:05:49.606Z,14.83
2023-09-08T01:08:18.227Z,14.88
2023-09-08T01:10:46.486Z,14.72
2023-09-08T01:13:15.240Z,14.68
2023-09-08T01:15:42.829Z,14.62
2023-09-08T01:18:10.934Z,14.75
2023-09-08T01:21:05.008Z,14.54
2023-09-08T01:23:57.016Z,14.40
2023-09-08T01:26:30.939Z,14.34
2023-09-08T01:28:58.914Z,14.16
2023-09-08T01:31:31.131Z,13.95
2023-09-08T01:34:02.811Z,14.04
2023-09-08T01:36:31.790Z,13.98
2023-09-08T01:38:58.968Z,14.30
2023-09-08T01:41:26.977Z,14.35
2023-09-08T01:43:54.236Z,14.37
2023-09-08T01:46:21.782Z,14.54
2023-09-08T01:48:49.035Z,14.22
2023-09-08T01:51:16.514Z,14.43
2023-09-08T01:53:43.618Z,14.48
2023-09-08T01:56:11.530Z,14.40
2023-09-08T01:58:39.044Z,14.08
2023-09-08T02:01:07.144Z,14.25
2023-09-08T02:03:36.008Z,14.44
2023-09-08T02:06:03.600Z,14.30
2023-09-08T02:08:32.004Z,14.20
2023-09-08T02:11:00.289Z,14.08
2023-09-08T02:13:27.422Z,14.06
2023-09-08T02:15:55.027Z,14.13
2023-09-08T02:18:22.237Z,14.01
2023-09-08T02:20:49.775Z,13.97
2023-09-08T02:23:16.921Z,14.03
2023-09-08T02:25:44.518Z,14.17
2023-09-08T02:28:12.068Z,13.93
2023-09-08T02:30:40.442Z,13.89
2023-09-08T02:33:07.818Z,13.89
2023-09-08T02:35:39.347Z,14.07
2023-09-08T02:38:07.071Z,14.06
2023-09-08T02:40:37.747Z,13.51
2023-09-08T02:43:06.279Z,13.59
2023-09-08T02:45:36.295Z,13.51
2023-09-08T02:48:04.403Z,13.10
2023-09-08T02:50:32.451Z,13.35
2023-09-08T02:52:59.631Z,13.54
2023-09-08T02:55:27.283Z,13.30
2023-09-08T02:57:55.015Z,13.15
2023-09-08T03:00:22.451Z,13.46
2023-09-08T03:02:50.194Z,13.45
2023-09-08T03:05:17.956Z,13.31
2023-09-08T03:07:50.209Z,13.45
2023-09-08T03:10:17.820Z,13.36
2023-09-08T03:12:45.012Z,13.43
2023-09-08T03:15:12.499Z,13.14
2023-09-08T03:17:39.783Z,13.13
2023-09-08T03:20:11.456Z,13.33
2023-09-08T03:22:38.654Z,13.47
2023-09-08T03:25:07.008Z,13.30
2023-09-08T03:27:34.187Z,13.46
2023-09-08T03:30:01.714Z,13.15
2023-09-08T03:32:30.428Z,13.18
2023-09-08T03:34:58.162Z,13.41
2023-09-08T03:37:27.259Z,13.51
2023-09-08T03:39:54.797Z,13.51
2023-09-08T03:42:22.141Z,13.47
2023-09-08T03:44:49.850Z,13.28
2023-09-08T03:47:17.240Z,13.30
2023-09-08T03:49:44.815Z,13.28
2023-09-08T03:52:13.393Z,13.31
2023-09-08T03:54:41.111Z,12.98
2023-09-08T03:57:08.478Z,13.21
2023-09-08T03:59:35.950Z,13.29
2023-09-08T04:02:03.265Z,13.42
2023-09-08T04:04:30.820Z,13.27
2023-09-08T04:06:58.122Z,13.28
2023-09-08T04:09:26.033Z,12.97
2023-09-08T04:11:53.518Z,13.06
2023-09-08T04:14:21.972Z,12.76
2023-09-08T04:16:49.183Z,13.12
2023-09-08T04:19:16.810Z,13.08
2023-09-08T04:21:43.966Z,13.56
2023-09-08T04:24:11.941Z,13.68
2023-09-08T04:26:39.412Z,13.94
2023-09-08T04:29:07.564Z,13.85
2023-09-08T04:31:36.313Z,13.40
2023-09-08T04:34:04.180Z,13.33
2023-09-08T04:36:31.696Z,13.38
2023-09-08T04:38:59.469Z,13.52
2023-09-08T04:41:26.873Z,14.47
2023-09-08T04:43:55.149Z,14.49
2023-09-08T04:46:22.522Z,14.14
2023-09-08T04:48:50.335Z,14.13
2023-09-08T04:51:18.674Z,14.16
2023-09-08T04:53:46.796Z,14.17
2023-09-08T04:56:15.086Z,14.22
2023-09-08T04:58:43.832Z,14.25
2023-09-08T05:01:11.153Z,14.38
2023-09-08T05:03:40.313Z,14.54
2023-09-08T05:06:08.648Z,14.72
2023-09-08T05:08:36.660Z,14.91
2023-09-08T05:11:05.440Z,15.32
2023-09-08T05:13:33.410Z,15.69
2023-09-08T05:16:12.665Z,15.87
2023-09-08T05:18:45.621Z,15.73
2023-09-08T05:21:15.296Z,15.73
2023-09-08T05:23:43.025Z,15.98
2023-09-08T05:26:12.513Z,15.84
2023-09-08T05:28:40.513Z,16.17
2023-09-08T05:31:08.681Z,16.72
2023-09-08T05:33:36.596Z,17.09
2023-09-08T05:36:04.829Z,17.29
2023-09-08T05:38:32.950Z,17.45
2023-09-08T05:41:01.090Z,17.62
2023-09-08T05:43:28.718Z,17.76
2023-09-08T05:45:56.826Z,17.84
2023-09-08T05:48:24.407Z,17.95
2023-09-08T05:50:51.771Z,18.20
2023-09-08T05:53:19.453Z,18.32
2023-09-08T05:55:47.114Z,18.41
2023-09-08T05:58:14.691Z,18.32
2023-09-08T06:00:42.483Z,18.51
2023-09-08T06:03:10.406Z,18.62
2023-09-08T06:05:38.280Z,18.74
2023-09-08T06:08:07.935Z,18.82
2023-09-08T06:10:39.878Z,18.91
2023-09-08T06:13:09.194Z,19.07
2023-09-08T06:15:38.102Z,19.22
2023-09-08T06:18:06.411Z,19.34
2023-09-08T06:20:34.289Z,19.59
2023-09-08T06:23:03.313Z,19.55
2023-09-08T06:25:30.994Z,19.68
2023-09-08T06:27:58.561Z,19.78
2023-09-08T06:30:25.789Z,19.90
2023-09-08T06:32:53.565Z,19.98
2023-09-08T06:35:20.931Z,20.15
2023-09-08T06:37:48.640Z,20.36
2023-09-08T06:40:16.963Z,20.49
2023-09-08T06:42:44.547Z,20.58
2023-09-08T06:45:19.421Z,21.00
2023-09-08T06:47:47.991Z,20.97
2023-09-08T06:50:15.782Z,21.06
2023-09-08T06:52:43.310Z,21.14
2023-09-08T06:55:10.687Z,21.03
2023-09-08T06:57:39.074Z,21.09
2023-09-08T07:00:09.676Z,21.26
2023-09-08T07:02:39.078Z,21.27
2023-09-08T07:05:09.408Z,21.51
2023-09-08T07:07:37.514Z,21.82
2023-09-08T07:10:05.767Z,21.92
2023-09-08T07:12:33.440Z,21.88
2023-09-08T07:15:03.754Z,22.00
2023-09-08T07:17:31.637Z,22.18
2023-09-08T07:19:59.071Z,22.42
2023-09-08T07:22:27.178Z,22.55
2023-09-08T07:24:54.423Z,22.59
2023-09-08T07:27:21.989Z,22.62
2023-09-08T07:29:50.751Z,22.62
2023-09-08T07:32:19.374Z,22.76
2023-09-08T07:34:49.062Z,22.86
2023-09-08T07:37:16.894Z,22.99
2023-09-08T07:39:44.292Z,23.19
2023-09-08T07:42:12.139Z,23.20
2023-09-08T07:44:39.447Z,23.14
2023-09-08T07:47:07.181Z,23.41
2023-09-08T07:49:35.309Z,23.48
2023-09-08T07:52:05.319Z,23.56
2023-09-08T07:54:32.598Z,23.18
2023-09-08T07:57:00.532Z,23.34
2023-09-08T07:59:27.973Z,23.66
2023-09-08T08:01:55.663Z,23.90
2023-09-08T08:04:23.208Z,23.94
2023-09-08T08:06:50.908Z,24.07
2023-09-08T08:09:18.112Z,24.25
2023-09-08T08:11:45.792Z,24.12
2023-09-08T08:14:13.278Z,24.28
2023-09-08T08:16:40.841Z,24.37
2023-09-08T08:19:08.198Z,24.44
2023-09-08T08:21:35.809Z,24.49
2023-09-08T08:24:03.139Z,24.76
2023-09-08T08:26:33.820Z,24.80
2023-09-08T08:29:01.068Z,24.64
2023-09-08T08:31:28.614Z,24.76
2023-09-08T08:33:55.773Z,24.34
2023-09-08T08:36:23.333Z,24.81
2023-09-08T08:38:50.777Z,24.50
2023-09-08T08:41:18.284Z,24.89
2023-09-08T08:43:46.511Z,24.69
2023-09-08T08:46:15.389Z,25.10
2023-09-08T08:48:43.973Z,25.47
2023-09-08T08:51:12.731Z,25.51
2023-09-08T08:53:40.571Z,25.31
2023-09-08T08:56:09.694Z,25.41
2023-09-08T08:58:40.278Z,25.46
2023-09-08T09:01:08.886Z,25.41
2023-09-08T09:03:39.154Z,25.30
2023-09-08T09:06:06.906Z,25.17
2023-09-08T09:08:35.408Z,25.25
2023-09-08T09:11:03.312Z,25.50
2023-09-08T09:13:30.572Z,25.91
2023-09-08T09:16:04.496Z,26.07
2023-09-08T09:18:32.441Z,26.06
2023-09-08T09:21:02.317Z,25.79
2023-09-08T09:23:31.570Z,25.90
2023-09-08T09:25:59.998Z,25.62
2023-09-08T09:28:29.985Z,26.39
2023-09-08T09:31:00.070Z,26.74
2023-09-08T09:33:29.180Z,26.24
2023-09-08T09:35:56.921Z,26.41
2023-09-08T09:38:28.302Z,26.37
2023-09-08T09:40:56.454Z,26.44
2023-09-08T09:43:24.308Z,26.14
2023-09-08T09:45:52.190Z,25.87
2023-09-08T09:48:22.017Z,25.94
2023-09-08T09:50:50.283Z,26.04
2023-09-08T09:53:19.170Z,26.00
2023-09-08T09:55:47.458Z,26.02
2023-09-08T09:58:16.486Z,26.57
2023-09-08T10:00:49.505Z,26.30
2023-09-08T10:03:19.933Z,26.21
2023-09-08T10:05:50.390Z,26.54
2023-09-08T10:08:18.656Z,26.68
2023-09-08T10:10:48.902Z,26.81
2023-09-08T10:13:23.791Z,26.88
2023-09-08T10:15:53.360Z,26.85
2023-09-08T10:18:22.625Z,26.98
2023-09-08T10:20:50.264Z,27.25
2023-09-08T10:23:28.434Z,26.63
2023-09-08T10:26:06.870Z,26.82
2023-09-08T10:28:35.215Z,27.41
2023-09-08T10:31:04.233Z,28.17
2023-09-08T10:33:32.926Z,27.92
2023-09-08T10:36:04.268Z,27.78
2023-09-08T10:38:36.094Z,27.99
2023-09-08T10:41:16.668Z,27.10
2023-09-08T10:43:44.874Z,27.96
2023-09-08T10:46:23.148Z,27.82
2023-09-08T10:48:50.740Z,27.63
2023-09-08T10:51:18.632Z,27.93
2023-09-08T10:53:51.584Z,27.96
2023-09-08T10:56:22.028Z,28.25
2023-09-08T10:58:53.818Z,28.10
2023-09-08T11:01:29.626Z,28.29
2023-09-08T11:03:59.434Z,28.10
2023-09-08T11:06:31.635Z,28.43
2023-09-08T11:09:08.010Z,28.08
2023-09-08T11:11:38.006Z,28.48
2023-09-08T11:14:05.512Z,28.66
2023-09-08T11:16:34.621Z,29.07
2023-09-08T11:19:05.889Z,28.62
2023-09-08T11:21:38.947Z,28.24
2023-09-08T11:24:07.910Z,27.97
2023-09-08T11:26:38.101Z,27.62
2023-09-08T11:29:06.633Z,27.82
2023-09-08T11:31:35.855Z,28.04
2023-09-08T11:34:06.675Z,28.29
2023-09-08T11:36:37.494Z,28.91
2023-09-08T11:39:07.219Z,29.49
2023-09-08T11:41:35.873Z,29.44
2023-09-08T11:44:03.331Z,29.18
2023-09-08T11:46:31.531Z,29.31
2023-09-08T11:48:59.527Z,28.29
2023-09-08T11:51:27.589Z,28.76
2023-09-08T11:53:56.094Z,28.22
2023-09-08T11:56:23.941Z,28.51
2023-09-08T11:58:51.952Z,28.42
2023-09-08T12:01:20.771Z,28.63
2023-09-08T12:03:56.114Z,28.12
2023-09-08T12:06:28.640Z,28.59
2023-09-08T12:08:57.461Z,29.05
2023-09-08T12:11:25.080Z,29.89
2023-09-08T12:14:01.619Z,29.02
2023-09-08T12:16:29.235Z,29.42
2023-09-08T12:18:56.703Z,29.66
2023-09-08T12:21:24.416Z,29.83
2023-09-08T12:23:53.108Z,29.03
2023-09-08T12:26:21.969Z,29.37
2023-09-08T12:28:49.755Z,30.06
2023-09-08T12:31:19.239Z,29.94
2023-09-08T12:33:47.617Z,30.21
2023-09-08T12:36:20.168Z,29.84
2023-09-08T12:38:54.157Z,29.74
2023-09-08T12:41:22.134Z,29.10
2023-09-08T12:43:49.979Z,29.16
2023-09-08T12:46:19.946Z,28.86
2023-09-08T12:48:47.426Z,29.54
2023-09-08T12:51:15.170Z,29.84
2023-09-08T12:53:42.546Z,29.37
2023-09-08T12:56:10.340Z,30.09
2023-09-08T12:58:38.002Z,29.36
2023-09-08T13:01:07.984Z,30.02
2023-09-08T13:03:35.325Z,30.74
2023-09-08T13:06:03.101Z,29.57
2023-09-08T13:08:30.508Z,30.47
2023-09-08T13:10:58.418Z,30.64
2023-09-08T13:13:25.995Z,30.02
2023-09-08T13:15:53.520Z,30.19
2023-09-08T13:18:20.822Z,29.94
2023-09-08T13:20:48.766Z,30.15
2023-09-08T13:23:16.514Z,29.44
2023-09-08T13:25:45.871Z,30.67
2023-09-08T13:28:13.339Z,30.63
2023-09-08T13:30:41.230Z,30.34
2023-09-08T13:33:08.883Z,29.99
2023-09-08T13:35:36.816Z,29.99
2023-09-08T13:38:05.232Z,30.44
2023-09-08T13:40:33.381Z,30.64
2023-09-08T13:43:01.595Z,30.23
2023-09-08T13:45:29.784Z,30.51
2023-09-08T13:47:57.399Z,30.18
2023-09-08T13:50:27.149Z,30.25
2023-09-08T13:52:55.906Z,30.40
2023-09-08T13:55:36.923Z,29.80
2023-09-08T13:58:09.157Z,30.83
2023-09-08T14:00:44.926Z,30.74
2023-09-08T14:03:14.972Z,30.18
2023-09-08T14:08:18.483Z,30.46
2023-09-08T14:13:25.711Z,30.11
2023-09-08T14:15:54.487Z,30.33
2023-09-08T14:18:21.946Z,30.90
2023-09-08T14:20:49.503Z,30.30
2023-09-08T14:23:19.590Z,30.48
2023-09-08T14:25:47.488Z,31.05
2023-09-08T14:28:14.837Z,30.76
2023-09-08T14:30:45.681Z,29.47
2023-09-08T14:33:13.116Z,29.48
2023-09-08T14:35:44.692Z,30.10
2023-09-08T14:38:13.330Z,29.96
2023-09-08T14:40:41.036Z,29.05
2023-09-08T14:43:08.816Z,28.70
2023-09-08T14:45:36.587Z,28.37
2023-09-08T14:48:04.259Z,28.78
2023-09-08T14:50:32.807Z,29.12
2023-09-08T14:53:00.696Z,28.84
2023-09-08T14:55:28.518Z,28.01
2023-09-08T14:57:56.620Z,27.98
2023-09-08T15:00:24.350Z,27.77
2023-09-08T15:02:51.929Z,27.66
2023-09-08T15:05:19.956Z,28.40
2023-09-08T15:07:47.690Z,28.05
2023-09-08T15:10:18.935Z,28.79
2023-09-08T15:12:47.011Z,28.84
2023-09-08T15:15:15.282Z,28.45
2023-09-08T15:17:43.099Z,28.76
2023-09-08T15:20:11.368Z,28.74
2023-09-08T15:22:39.057Z,28.78
2023-09-08T15:25:07.754Z,28.58
2023-09-08T15:27:35.742Z,28.49
2023-09-08T15:30:03.884Z,28.58
2023-09-08T15:32:31.341Z,27.96
2023-09-08T15:34:59.331Z,27.99
2023-09-08T15:37:27.060Z,28.34
2023-09-08T15:39:55.343Z,28.08
2023-09-08T15:42:22.999Z,28.42
2023-09-08T15:44:50.808Z,28.36
2023-09-08T15:47:20.276Z,28.25
2023-09-08T15:49:48.184Z,27.77
2023-09-08T15:52:17.182Z,27.87
2023-09-08T15:54:45.611Z,28.10
2023-09-08T15:57:13.367Z,27.48
2023-09-08T15:59:41.458Z,27.22
2023-09-08T16:02:09.189Z,26.46
2023-09-08T16:04:37.603Z,26.75
2023-09-08T16:07:05.512Z,26.51
2023-09-08T16:09:33.287Z,26.55
2023-09-08T16:12:00.669Z,26.39
2023-09-08T16:14:28.347Z,26.54
2023-09-08T16:16:55.701Z,26.42
2023-09-08T16:19:23.379Z,26.56
2023-09-08T16:21:50.975Z,26.26
2023-09-08T16:24:18.692Z,26.41
2023-09-08T16:26:46.286Z,26.32
2023-09-08T16:29:14.198Z,26.40
2023-09-08T16:31:41.560Z,26.13
2023-09-08T16:34:09.191Z,25.99
2023-09-08T16:36:38.629Z,25.96
2023-09-08T16:39:07.520Z,25.72
2023-09-08T16:41:34.841Z,25.79
2023-09-08T16:44:02.466Z,25.51
2023-09-08T16:46:29.785Z,25.30
2023-09-08T16:48:57.573Z,25.01
2023-09-08T16:51:24.862Z,24.75
2023-09-08T16:53:52.640Z,24.79
2023-09-08T16:56:19.911Z,24.69
2023-09-08T16:58:47.557Z,24.65
2023-09-08T17:01:15.127Z,24.57
2023-09-08T17:03:43.514Z,24.27
2023-09-08T17:06:10.982Z,24.09
2023-09-08T17:08:38.938Z,24.08
2023-09-08T17:11:07.595Z,24.07
2023-09-08T17:13:36.531Z,24.02
2023-09-08T17:16:04.695Z,23.89
2023-09-08T17:18:34.905Z,23.73
2023-09-08T17:21:05.340Z,23.56
2023-09-08T17:23:33.301Z,23.28
2023-09-08T17:26:02.229Z,23.22
2023-09-08T17:28:29.838Z,23.07
2023-09-08T17:30:57.138Z,22.93
2023-09-08T17:33:24.870Z,22.54
2023-09-08T17:35:52.269Z,22.11
2023-09-08T17:38:20.095Z,22.45
2023-09-08T17:40:47.483Z,21.45
2023-09-08T17:43:15.123Z,21.40
2023-09-08T17:45:42.646Z,21.83
2023-09-08T17:48:10.425Z,20.95
2023-09-08T17:50:38.198Z,20.94
2023-09-08T17:53:05.829Z,21.26
2023-09-08T17:55:33.135Z,20.51
2023-09-08T17:58:00.995Z,20.31
2023-09-08T18:00:28.835Z,20.55
2023-09-08T18:02:56.881Z,20.99
2023-09-08T18:05:24.404Z,21.29
2023-09-08T18:07:52.143Z,21.20
2023-09-08T18:10:19.946Z,20.91
2023-09-08T18:12:47.990Z,20.73
2023-09-08T18:15:15.633Z,20.80
2023-09-08T18:17:48.889Z,20.60
2023-09-08T18:20:28.458Z,20.28
2023-09-08T18:22:57.726Z,20.40
2023-09-08T18:25:25.312Z,20.39
2023-09-08T18:27:54.168Z,20.22
2023-09-08T18:30:22.056Z,19.79
2023-09-08T18:32:49.928Z,19.78
2023-09-08T18:35:17.641Z,19.54
2023-09-08T18:37:45.340Z,19.46
2023-09-08T18:40:12.694Z,19.44
2023-09-08T18:42:40.485Z,19.20
2023-09-08T18:45:08.892Z,19.57
2023-09-08T18:47:36.989Z,19.92
2023-09-08T18:50:05.741Z,19.69
2023-09-08T18:52:33.980Z,19.89
2023-09-08T18:55:01.508Z,19.84
2023-09-08T18:57:32.099Z,19.76
2023-09-08T19:00:00.118Z,19.24
2023-09-08T19:02:32.333Z,18.88
2023-09-08T19:05:00.464Z,19.10
2023-09-08T19:07:28.878Z,18.91
2023-09-08T19:09:56.438Z,18.73
2023-09-08T19:12:24.522Z,18.92
2023-09-08T19:14:51.941Z,18.51
2023-09-08T19:17:19.878Z,18.63
2023-09-08T19:19:48.253Z,18.61
2023-09-08T19:22:16.360Z,18.87
2023-09-08T19:24:45.777Z,18.91
2023-09-08T19:27:13.847Z,18.78
2023-09-08T19:29:41.707Z,18.53
2023-09-08T19:32:11.479Z,18.86
2023-09-08T19:34:39.685Z,19.07
2023-09-08T19:37:08.777Z,18.96
2023-09-08T19:39:36.533Z,18.45
2023-09-08T19:42:04.981Z,18.26
2023-09-08T19:44:33.969Z,18.68
2023-09-08T19:47:02.761Z,18.52
2023-09-08T19:49:30.384Z,18.73
2023-09-08T19:51:58.546Z,18.72
2023-09-08T19:54:26.148Z,18.65
2023-09-08T19:56:54.051Z,18.57
2023-09-08T19:59:54.569Z,18.45
2023-09-08T20:02:22.719Z,18.64
2023-09-08T20:04:50.348Z,18.40
2023-09-08T20:07:18.165Z,18.31
2023-09-08T20:09:46.791Z,18.38
2023-09-08T20:12:15.568Z,18.27
2023-09-08T20:14:43.881Z,18.36
2023-09-08T20:17:14.370Z,18.38
2023-09-08T20:19:42.705Z,18.23
2023-09-08T20:22:10.653Z,18.29
2023-09-08T20:24:40.767Z,18.02
2023-09-08T20:27:11.680Z,18.33
2023-09-08T20:29:39.460Z,18.27
2023-09-08T20:32:08.882Z,18.29
2023-09-08T20:34:36.977Z,18.23
2023-09-08T20:37:04.910Z,18.24
2023-09-08T20:39:32.496Z,18.05
2023-09-08T20:42:00.239Z,18.03
2023-09-08T20:44:27.688Z,17.84
2023-09-08T20:46:55.467Z,17.63
2023-09-08T20:49:24.315Z,17.61
2023-09-08T20:51:52.138Z,17.68
2023-09-08T20:54:20.739Z,17.46
2023-09-08T20:56:49.626Z,17.74
2023-09-08T20:59:17.377Z,17.47
2023-09-08T21:01:45.158Z,17.49
2023-09-08T21:04:12.615Z,17.50
2023-09-08T21:06:41.458Z,17.26
2023-09-08T21:09:09.630Z,17.30
2023-09-08T21:11:37.566Z,17.18
2023-09-08T21:14:06.926Z,17.53
2023-09-08T21:16:34.526Z,17.20
2023-09-08T21:19:01.815Z,17.26
2023-09-08T21:21:29.596Z,17.22
2023-09-08T21:23:56.856Z,17.36
2023-09-08T21:26:24.648Z,17.36
2023-09-08T21:28:52.053Z,17.22
2023-09-08T21:31:19.785Z,17.02
2023-09-08T21:33:49.858Z,17.29
2023-09-08T21:36:18.645Z,17.41
2023-09-08T21:38:46.278Z,17.32
2023-09-08T21:41:14.388Z,17.27
2023-09-08T21:43:41.613Z,17.34
2023-09-08T21:46:10.483Z,17.06
2023-09-08T21:48:38.482Z,16.82
2023-09-08T21:51:06.562Z,16.72
2023-09-08T21:53:34.114Z,16.72
2023-09-08T21:56:02.120Z,16.75
2023-09-08T21:58:29.932Z,16.62
2023-09-08T22:00:57.641Z,16.71
2023-09-08T22:03:25.122Z,16.66
2023-09-08T22:05:52.961Z,16.63
2023-09-08T22:08:20.163Z,16.77
2023-09-08T22:10:47.891Z,16.73
2023-09-08T22:13:15.199Z,16.85
2023-09-08T22:15:42.789Z,16.97
2023-09-08T22:18:10.078Z,16.86
2023-09-08T22:20:37.789Z,16.73
2023-09-08T22:23:05.659Z,16.86
2023-09-08T22:25:34.940Z,16.84
2023-09-08T22:28:02.359Z,16.82
2023-09-08T22:30:29.988Z,16.87
2023-09-08T22:32:57.358Z,16.74
2023-09-08T22:35:25.450Z,16.81
2023-09-08T22:37:59.516Z,16.89
2023-09-08T22:40:32.218Z,16.80
2023-09-08T22:43:08.717Z,16.61
2023-09-08T22:45:37.938Z,16.55
2023-09-08T22:48:08.669Z,16.54
2023-09-08T22:50:37.162Z,16.52
2023-09-08T22:53:04.966Z,16.42
2023-09-08T22:55:32.796Z,16.30
2023-09-08T22:58:00.335Z,16.45
2023-09-08T23:00:28.280Z,16.53
2023-09-08T23:02:56.215Z,16.56
2023-09-08T23:05:23.934Z,16.69
2023-09-08T23:07:55.459Z,16.62
2023-09-08T23:10:23.240Z,16.44
2023-09-08T23:12:50.492Z,16.34
2023-09-08T23:15:18.439Z,16.27
2023-09-08T23:17:45.919Z,16.21
2023-09-08T23:20:16.787Z,16.30
2023-09-08T23:22:45.359Z,16.23
2023-09-08T23:25:13.592Z,16.18
2023-09-08T23:27:41.069Z,15.98
2023-09-08T23:30:09.208Z,15.97
2023-09-08T23:32:36.688Z,16.09
2023-09-08T23:35:05.341Z,16.04
2023-09-08T23:37:33.827Z,15.96
2023-09-08T23:40:01.334Z,16.07
2023-09-08T23:42:28.570Z,15.88
2023-09-08T23:44:56.115Z,15.90
2023-09-08T23:47:23.388Z,16.06
2023-09-08T23:49:51.181Z,16.18
2023-09-08T23:52:18.464Z,16.21
2023-09-08T23:54:46.224Z,16.36
2023-09-08T23:57:13.755Z,16.36
2023-09-08T23:59:41.523Z,15.86
